logo tempoitalia

Diretta Meteo Gorna Orechovista, Bulgarialunedì 31 agosto ore 08:00

Mappa
Sereno 18 °C Sereno 24 Ore: T.min 15 T.max 31
Ponente Est Km/h 7.4 Punto di rugiada: 15 °C Umidità: 82% Visibilità: 10 Km
Il sole sorge alle: 06:40 Il sole tramonta alle: 19:55
31 Agosto 2026 08:00 tempo osservato: Sereno Sereno 18 82 1017 vento: Nord E 7.4
31 Agosto 2026 07:30 tempo osservato: Sereno Sereno 17 88 1017 vento: Nord E 9.3
31 Agosto 2026 07:00 tempo osservato: Sereno Sereno 15 93 1017 vento: Nord E 9.3
31 Agosto 2026 06:30 tempo osservato: Sereno Sereno 15 93 1017 vento: Nord E 9.3
31 Agosto 2026 06:00 tempo osservato: Sereno Sereno 15 93 1017 vento: Nord E 7.4
31 Agosto 2026 05:30 tempo osservato: Sereno Sereno 15 93 1017 vento: Nord E 7.4
31 Agosto 2026 05:00 tempo osservato: Sereno Sereno 15 100 1017 vento: Nord E 9.3
31 Agosto 2026 04:30 tempo osservato: Sereno Sereno 16 93 1017 vento: Nord N 3.7
31 Agosto 2026 04:00 tempo osservato: Sereno Sereno 16 93 1017 vento: Nord N 5.5
31 Agosto 2026 03:30 tempo osservato: Sereno Sereno 16 93 1017 vento: Nord E 7.4
31 Agosto 2026 03:00 tempo osservato: Sereno Sereno 16 93 1017 vento: Nord E 7.4
31 Agosto 2026 02:30 tempo osservato: Sereno Sereno 17 88 1017 vento: Nord N 5.5
31 Agosto 2026 02:00 tempo osservato: Sereno Sereno 17 88 1017 vento: Nord E 9.3
31 Agosto 2026 01:30 tempo osservato: Sereno Sereno 18 88 1017 vento: Nord N 3.7
31 Agosto 2026 01:00 tempo osservato: Sereno Sereno 18 88 1017 vento: Nord N 5.5
31 Agosto 2026 00:30 tempo osservato: Sereno Sereno 17 93 1017 vento: Nord E 7.4
31 Agosto 2026 00:00 tempo osservato: Sereno Sereno 18 88 1017 vento: Nord N 1.8
30 Agosto 2026 23:30 tempo osservato: Sereno Sereno 18 88 1017 vento: Nord E 9.3
30 Agosto 2026 23:00 tempo osservato: Sereno Sereno 18 88 1017 vento: Nord N 5.5
30 Agosto 2026 22:30 tempo osservato: Sereno Sereno 18 88 1017 vento: Nord N 3.7
30 Agosto 2026 22:00 tempo osservato: Sereno Sereno 19 82 1016 vento: Nord N 0
30 Agosto 2026 21:30 tempo osservato: Sereno Sereno 20 88 1016 vento: Nord N 0
30 Agosto 2026 21:00 tempo osservato: Sereno Sereno 21 77 1016 vento: Nord N 0
30 Agosto 2026 20:30 tempo osservato: Sereno Sereno 22 73 1016 vento: Nord N 0
30 Agosto 2026 20:00 tempo osservato: Sereno Sereno 24 60 1015 vento: Nord N 0
30 Agosto 2026 19:30 tempo osservato: Sereno Sereno 28 51 1015 vento: Nord N 5.5
30 Agosto 2026 19:00 tempo osservato: Sereno Sereno 29 42 1015 vento: Nord NE 7.4
30 Agosto 2026 18:30 tempo osservato: Sereno Sereno 30 35 1016 vento: Nord NE 7.4
30 Agosto 2026 18:00 tempo osservato: Sereno Sereno 31 33 1016 vento: Nord E 7.4
30 Agosto 2026 17:30 tempo osservato: Sereno Sereno 31 31 1016 vento: Nord E/NE 9.3
30 Agosto 2026 17:00 tempo osservato: Sereno Sereno 31 33 1016 vento: Nord E 9.3
30 Agosto 2026 16:30 tempo osservato: Sereno Sereno 31 31 1016 vento: Nord N 5.5
30 Agosto 2026 16:00 tempo osservato: Sereno Sereno 31 33 1016 vento: Nord N 7.4
30 Agosto 2026 15:30 tempo osservato: Sereno Sereno 30 40 1016 vento: Nord N 5.5
30 Agosto 2026 15:00 tempo osservato: Molto Nuvoloso Molto Nuvoloso 30 37 1017 vento: Nord N 7.4
30 Agosto 2026 14:30 tempo osservato: Molto Nuvoloso Molto Nuvoloso 29 39 1017 vento: Nord N 9.3
30 Agosto 2026 14:00 tempo osservato: Nuvoloso Nuvoloso 29 42 1017 vento: Nord N 7.4
30 Agosto 2026 13:30 tempo osservato: Sereno Sereno 28 42 1018 vento: Nord E 7.4
30 Agosto 2026 13:00 tempo osservato: Sereno Sereno 26 50 1018 vento: Nord E 9.3
30 Agosto 2026 12:30 tempo osservato: Nuvoloso Nuvoloso 25 53 1018 vento: Nord E 11.1
30 Agosto 2026 12:00 tempo osservato: Coperto Coperto 23 60 1018 vento: Nord E 7.4
30 Agosto 2026 11:30 tempo osservato: Coperto Coperto 22 64 1019 vento: Nord E 9.3
30 Agosto 2026 11:00 tempo osservato: Molto Nuvoloso Molto Nuvoloso 21 68 1019 vento: Nord E 7.4
30 Agosto 2026 10:30 tempo osservato: Molto Nuvoloso Molto Nuvoloso 20 77 1018 vento: Nord E 7.4
30 Agosto 2026 10:00 tempo osservato: Coperto Coperto 18 88 1018 vento: Nord N 1.8
30 Agosto 2026 09:30 tempo osservato: Coperto Coperto 17 93 1018 vento: Nord N 5.5
30 Agosto 2026 09:00 tempo osservato: Molto Nuvoloso Molto Nuvoloso 17 88 1018 vento: Nord E 9.3